Date,TemperatureHighF,TemperatureAvgF,TemperatureLowF,DewpointHighF,DewpointAvgF,DewpointLowF,HumidityHigh,HumidityAvg,HumidityLow,PressureMaxIn,PressureMinIn,WindSpeedMaxMPH,WindSpeedAvgMPH,GustSpeedMaxMPH,PrecipitationSumIn
2013-9-1,89,74,66,81,71,66,100,92,74,29.97,29.86,0,0,0,0.02
2013-9-2,87,73,65,78,71,31,100,92,73,29.98,29.88,0,0,0,0.00
2013-9-3,83,70,62,75,67,62,100,92,72,30.04,29.89,0,0,0,0.19
2013-9-4,84,70,61,76,67,-16,100,92,73,30.15,30.03,0,0,0,0.00
2013-9-5,86,70,61,74,65,45,100,87,54,30.17,30.11,0,0,0,0.00
2013-9-6,82,67,57,71,64,56,100,89,67,30.22,30.11,22,0,22,0.00
2013-9-7,82,68,58,73,65,58,100,91,69,30.16,30.04,0,0,0,0.00
2013-9-8,85,70,60,76,67,60,100,91,73,30.07,29.99,0,0,0,0.00
2013-9-9,86,71,61,76,68,61,100,90,69,30.18,30.06,0,0,0,0.00
2013-9-10,89,72,62,78,68,62,100,89,66,30.28,30.18,0,0,0,0.00
2013-9-11,86,71,62,77,69,62,100,93,74,30.27,30.14,0,0,0,0.02
2013-9-12,86,72,63,77,69,63,100,92,73,30.15,29.93,0,0,0,0.00
2013-9-13,81,68,55,71,63,27,100,85,25,29.95,29.86,10,0,10,0.00
2013-9-14,75,61,50,63,56,44,100,85,63,30.13,29.95,6,0,6,0.00
2013-9-15,77,62,50,68,59,50,100,91,73,30.22,30.13,6,0,6,0.00
2013-9-16,83,67,55,72,63,55,100,88,67,30.18,30.10,2,0,2,0.00
2013-9-17,72,65,60,63,60,57,96,85,69,30.30,30.18,6,0,6,0.00
2013-9-18,73,62,55,65,59,26,98,90,25,30.28,30.17,3,0,3,0.00
2013-9-19,83,67,57,74,64,57,100,93,69,30.20,30.10,6,0,6,0.06
2013-9-20,85,69,60,75,66,28,100,91,25,30.12,29.97,0,0,0,0.00
2013-9-21,70,63,59,70,63,59,100,99,95,29.98,29.75,0,0,0,1.14
2013-9-22,74,62,53,64,58,-16,100,89,66,29.95,29.78,4,0,4,0.00
2013-9-23,74,62,53,65,59,53,100,90,72,30.07,29.94,5,0,5,0.00
2013-9-24,78,64,53,69,62,53,100,92,74,30.09,29.96,6,0,6,0.00
2013-9-25,64,61,59,64,61,59,100,99,97,29.96,29.89,0,0,0,1.08
2013-9-26,71,62,54,66,61,28,100,94,80,30.06,29.90,5,0,5,0.02
2013-9-27,76,61,52,67,59,52,100,91,72,30.18,30.06,3,0,3,0.00
2013-9-28,71,61,54,64,58,54,100,91,75,30.24,30.15,6,0,6,0.00
2013-9-29,73,61,52,64,58,52,100,90,69,30.18,30.04,3,0,3,0.00
2013-9-30,73,61,52,66,58,19,100,92,25,30.11,30.01,2,0,2,0.00